createdAt,value
2022-08-17T00:00:42.579Z,99738.97
2022-08-17T00:03:39.159Z,99739.34
2022-08-17T00:06:28.565Z,99761.56
2022-08-17T00:09:18.335Z,99761.09
2022-08-17T00:12:41.879Z,99756.44
2022-08-17T00:15:13.779Z,99739.66
2022-08-17T00:17:59.249Z,99748.78
2022-08-17T00:20:45.261Z,99767.50
2022-08-17T00:23:31.472Z,99767.91
2022-08-17T00:26:45.238Z,99776.63
2022-08-17T00:29:25.404Z,99769.41
2022-08-17T00:33:14.209Z,99772.63
2022-08-17T00:35:23.716Z,99770.22
2022-08-17T00:38:12.127Z,99749.88
2022-08-17T00:41:02.016Z,99766.19
2022-08-17T00:43:54.776Z,99772.56
2022-08-17T00:46:42.850Z,99781.34
2022-08-17T00:49:31.805Z,99768.56
2022-08-17T00:52:21.708Z,99769.41
2022-08-17T00:55:09.189Z,99762.22
2022-08-17T00:57:58.724Z,99766.16
2022-08-17T01:00:46.179Z,99740.69
2022-08-17T01:03:33.021Z,99747.81
2022-08-17T01:06:21.626Z,99761.00
2022-08-17T01:09:09.002Z,99760.19
2022-08-17T01:11:55.668Z,99760.63
2022-08-17T01:14:41.639Z,99760.28
2022-08-17T01:17:28.588Z,99712.91
2022-08-17T01:20:14.362Z,99753.47
2022-08-17T01:23:01.489Z,99759.84
2022-08-17T01:25:50.959Z,99762.22
2022-08-17T01:28:54.136Z,99764.63
2022-08-17T01:31:45.618Z,99754.22
2022-08-17T01:34:42.429Z,99762.56
2022-08-17T01:37:34.581Z,99761.41
2022-08-17T01:40:31.788Z,99772.19
2022-08-17T01:43:23.557Z,99767.38
2022-08-17T01:46:09.678Z,99774.94
2022-08-17T01:48:57.711Z,99773.38
2022-08-17T01:51:44.037Z,99779.03
2022-08-17T01:54:30.029Z,99763.91
2022-08-17T01:57:16.717Z,99768.25
2022-08-17T02:00:06.583Z,99763.84
2022-08-17T02:02:57.218Z,99768.31
2022-08-17T02:05:42.994Z,99738.50
2022-08-17T02:08:37.229Z,99754.78
2022-08-17T02:11:25.644Z,99755.94
2022-08-17T02:14:12.114Z,99758.28
2022-08-17T02:16:58.659Z,99761.84
2022-08-17T02:19:44.749Z,99742.34
2022-08-17T02:22:31.232Z,99725.66
2022-08-17T02:25:20.659Z,99747.56
2022-08-17T02:28:10.917Z,99765.44
2022-08-17T02:31:01.256Z,99772.63
2022-08-17T02:34:00.324Z,99755.31
2022-08-17T02:36:49.453Z,99771.72
2022-08-17T02:39:35.318Z,99763.75
2022-08-17T02:42:27.737Z,99753.34
2022-08-17T02:45:17.624Z,99760.91
2022-08-17T02:48:04.645Z,99760.16
2022-08-17T02:50:50.544Z,99725.09
2022-08-17T02:53:37.124Z,99752.13
2022-08-17T02:56:22.743Z,99756.88
2022-08-17T02:59:09.205Z,99761.63
2022-08-17T03:01:55.214Z,99744.47
2022-08-17T03:04:41.505Z,99768.00
2022-08-17T03:07:27.472Z,99767.25
2022-08-17T03:10:14.862Z,99760.19
2022-08-17T03:13:01.951Z,99737.03
2022-08-17T03:15:48.609Z,99780.03
2022-08-17T03:18:35.042Z,99782.06
2022-08-17T03:21:21.877Z,99753.78
2022-08-17T03:24:09.209Z,99783.22
2022-08-17T03:26:56.069Z,99778.75
2022-08-17T03:29:42.303Z,99799.81
2022-08-17T03:32:29.180Z,99775.69
2022-08-17T03:35:18.005Z,99788.47
2022-08-17T03:38:05.250Z,99783.19
2022-08-17T03:40:56.238Z,99782.31
2022-08-17T03:43:45.040Z,99761.03
2022-08-17T03:46:49.993Z,99786.50
2022-08-17T03:50:05.890Z,99789.31
2022-08-17T03:53:10.721Z,99782.63
2022-08-17T03:56:24.978Z,99776.81
2022-08-17T03:59:21.113Z,99787.16
2022-08-17T04:02:11.992Z,99790.84
2022-08-17T04:04:58.992Z,99799.22
2022-08-17T04:07:46.100Z,99783.31
2022-08-17T04:10:33.285Z,99812.16
2022-08-17T04:13:25.565Z,99807.50
2022-08-17T04:16:11.503Z,99790.41
2022-08-17T04:18:57.872Z,99806.41
2022-08-17T04:21:43.737Z,99816.38
2022-08-17T04:24:30.162Z,99814.78
2022-08-17T04:27:16.082Z,99819.91
2022-08-17T04:30:06.971Z,99821.50
2022-08-17T04:33:05.725Z,99795.19
2022-08-17T04:35:55.826Z,99816.66
2022-08-17T04:38:43.095Z,99811.09
2022-08-17T04:41:49.126Z,99797.97
2022-08-17T04:44:37.545Z,99795.22
2022-08-17T04:47:24.948Z,99819.53
2022-08-17T04:50:11.738Z,99799.22
2022-08-17T04:52:58.367Z,99826.31
2022-08-17T04:55:44.821Z,99830.31
2022-08-17T04:58:31.536Z,99832.69
2022-08-17T05:01:23.337Z,99836.28
2022-08-17T05:04:21.350Z,99805.50
2022-08-17T05:07:23.977Z,99816.63
2022-08-17T05:10:11.674Z,99809.38
2022-08-17T05:12:59.711Z,99824.50
2022-08-17T05:15:50.070Z,99838.00
2022-08-17T05:18:38.896Z,99851.50
2022-08-17T05:21:26.981Z,99839.06
2022-08-17T05:24:38.713Z,99815.41
2022-08-17T05:27:19.788Z,99816.44
2022-08-17T05:30:06.611Z,99810.81
2022-08-17T05:33:08.939Z,99840.56
2022-08-17T05:35:57.843Z,99854.03
2022-08-17T05:38:44.749Z,99812.63
2022-08-17T05:41:31.742Z,99847.53
2022-08-17T05:44:18.671Z,99849.03
2022-08-17T05:47:05.975Z,99843.69
2022-08-17T05:49:56.884Z,99850.88
2022-08-17T05:52:53.910Z,99846.38
2022-08-17T05:56:01.762Z,99856.53
2022-08-17T05:59:03.830Z,99852.34
2022-08-17T06:02:15.981Z,99851.31
2022-08-17T06:05:25.023Z,99860.84
2022-08-17T06:08:42.631Z,99862.31
2022-08-17T06:11:39.811Z,99840.84
2022-08-17T06:14:42.029Z,99858.56
2022-08-17T06:17:29.904Z,99859.78
2022-08-17T06:20:17.630Z,99856.00
2022-08-17T06:23:05.965Z,99862.28
2022-08-17T06:26:03.895Z,99866.06
2022-08-17T06:28:57.452Z,99856.03
2022-08-17T06:31:44.635Z,99864.22
2022-08-17T06:34:33.883Z,99862.38
2022-08-17T06:37:25.333Z,99861.31
2022-08-17T06:40:26.750Z,99870.00
2022-08-17T06:43:48.045Z,99866.63
2022-08-17T06:46:42.000Z,99867.09
2022-08-17T06:49:55.529Z,99860.09
2022-08-17T06:52:53.252Z,99870.19
2022-08-17T06:55:56.620Z,99859.31
2022-08-17T06:58:45.823Z,99860.03
2022-08-17T07:01:39.049Z,99863.91
2022-08-17T07:04:34.023Z,99869.59
2022-08-17T07:07:43.960Z,99867.31
2022-08-17T07:10:44.647Z,99873.47
2022-08-17T07:14:18.161Z,99869.63
2022-08-17T07:17:11.288Z,99871.66
2022-08-17T07:20:08.958Z,99876.16
2022-08-17T07:23:25.628Z,99877.72
2022-08-17T07:26:15.956Z,99879.22
2022-08-17T07:29:03.959Z,99880.13
2022-08-17T07:31:53.883Z,99879.38
2022-08-17T07:35:01.703Z,99878.53
2022-08-17T07:37:55.712Z,99879.69
2022-08-17T07:40:59.399Z,99883.22
2022-08-17T07:43:52.548Z,99881.44
2022-08-17T07:47:10.588Z,99888.78
2022-08-17T07:50:37.600Z,99890.94
2022-08-17T07:53:26.781Z,99893.22
2022-08-17T07:56:34.818Z,99891.56
2022-08-17T07:59:33.376Z,99890.75
2022-08-17T08:02:35.469Z,99884.22
2022-08-17T08:05:31.715Z,99882.97
2022-08-17T08:08:45.866Z,99885.59
2022-08-17T08:11:43.746Z,99893.41
2022-08-17T08:14:41.088Z,99885.63
2022-08-17T08:17:47.194Z,99889.94
2022-08-17T08:20:53.373Z,99891.59
2022-08-17T08:24:13.530Z,99898.63
2022-08-17T08:27:27.642Z,99895.72
2022-08-17T08:30:22.625Z,99887.63
2022-08-17T08:33:10.705Z,99903.47
2022-08-17T08:36:12.281Z,99906.41
2022-08-17T08:39:42.715Z,99905.81
2022-08-17T08:43:10.372Z,99902.66
2022-08-17T08:46:25.563Z,99912.69
2022-08-17T08:50:01.876Z,99910.34
2022-08-17T08:53:14.615Z,99917.69
2022-08-17T08:56:14.978Z,99899.63
2022-08-17T08:59:23.714Z,99908.66
2022-08-17T09:02:39.024Z,99920.41
2022-08-17T09:06:33.306Z,99909.44
2022-08-17T09:09:21.009Z,99905.94
2022-08-17T09:12:17.450Z,99913.75
2022-08-17T09:15:14.313Z,99886.97
2022-08-17T09:19:01.333Z,99902.44
2022-08-17T09:21:54.563Z,99899.75
2022-08-17T09:25:14.613Z,99905.28
2022-08-17T09:28:19.499Z,99882.88
2022-08-17T09:31:11.444Z,99898.38
2022-08-17T09:34:11.444Z,99894.75
2022-08-17T09:37:20.427Z,99902.25
2022-08-17T09:40:29.109Z,99902.91
2022-08-17T09:43:45.621Z,99903.50
2022-08-17T09:46:45.758Z,99906.63
2022-08-17T09:50:01.357Z,99891.13
2022-08-17T09:52:51.415Z,99899.13
2022-08-17T09:56:06.868Z,99877.78
2022-08-17T09:59:25.457Z,99895.75
2022-08-17T10:02:54.450Z,99888.53
2022-08-17T10:05:57.547Z,99886.06
2022-08-17T10:08:52.535Z,99887.97
2022-08-17T10:12:13.310Z,99879.41
2022-08-17T10:15:44.544Z,99877.44
2022-08-17T10:19:09.458Z,99887.31
2022-08-17T10:22:34.570Z,99880.75
2022-08-17T10:26:00.532Z,99883.09
2022-08-17T10:29:02.871Z,99875.84
2022-08-17T10:32:03.548Z,99875.50
2022-08-17T10:35:14.719Z,99883.63
2022-08-17T10:38:25.965Z,99873.91
2022-08-17T10:41:18.479Z,99875.00
2022-08-17T10:44:38.120Z,99871.00
2022-08-17T10:48:06.080Z,99883.31
2022-08-17T10:50:58.130Z,99892.97
2022-08-17T10:53:49.221Z,99887.66
2022-08-17T10:56:43.406Z,99869.34
2022-08-17T10:59:37.299Z,99875.47
2022-08-17T11:02:31.495Z,99875.00
2022-08-17T11:05:59.281Z,99875.81
2022-08-17T11:09:02.028Z,99871.53
2022-08-17T11:12:00.174Z,99888.56
2022-08-17T11:15:12.073Z,99884.63
2022-08-17T11:18:11.329Z,99885.31
2022-08-17T11:21:12.635Z,99885.47
2022-08-17T11:24:12.118Z,99874.00
2022-08-17T11:27:17.165Z,99879.09
2022-08-17T11:30:31.130Z,99883.25
2022-08-17T11:33:29.687Z,99874.00
2022-08-17T11:36:35.402Z,99875.94
2022-08-17T11:39:28.236Z,99883.31
2022-08-17T11:42:25.742Z,99881.81
2022-08-17T11:45:37.081Z,99885.53
2022-08-17T11:49:01.034Z,99872.78
2022-08-17T11:52:01.159Z,99875.09
2022-08-17T11:54:48.976Z,99857.13
2022-08-17T11:57:40.630Z,99865.00
2022-08-17T12:00:47.319Z,99842.03
2022-08-17T12:03:34.126Z,99862.34
2022-08-17T12:06:31.065Z,99856.09
2022-08-17T12:09:25.011Z,99847.47
2022-08-17T12:12:15.038Z,99843.53
2022-08-17T12:15:10.524Z,99846.69
2022-08-17T12:17:58.418Z,99856.28
2022-08-17T12:20:45.601Z,99820.44
2022-08-17T12:23:47.871Z,99826.09
2022-08-17T12:26:36.974Z,99854.16
2022-08-17T12:29:35.824Z,99835.09
2022-08-17T12:32:30.927Z,99851.50
2022-08-17T12:35:49.850Z,99849.53
2022-08-17T12:38:41.903Z,99861.59
2022-08-17T12:41:36.553Z,99840.16
2022-08-17T12:44:30.066Z,99856.16
2022-08-17T12:47:22.747Z,99856.41
2022-08-17T12:50:28.711Z,99848.50
2022-08-17T12:53:25.985Z,99837.66
2022-08-17T12:56:13.891Z,99836.09
2022-08-17T12:59:02.352Z,99826.50
2022-08-17T13:01:50.530Z,99849.97
2022-08-17T13:04:41.056Z,99843.38
2022-08-17T13:07:30.906Z,99846.09
2022-08-17T13:10:32.442Z,99847.13
2022-08-17T13:13:26.767Z,99845.81
2022-08-17T13:16:14.503Z,99843.06
2022-08-17T13:19:15.061Z,99843.06
2022-08-17T13:22:02.135Z,99812.28
2022-08-17T13:25:04.099Z,99829.41
2022-08-17T13:27:58.361Z,99828.59
2022-08-17T13:30:45.903Z,99832.09
2022-08-17T13:33:43.383Z,99831.41
2022-08-17T13:36:33.985Z,99810.53
2022-08-17T13:39:25.504Z,99826.03
2022-08-17T13:42:52.731Z,99822.03
2022-08-17T13:45:50.765Z,99826.88
2022-08-17T13:48:37.917Z,99823.91
2022-08-17T13:51:29.053Z,99824.38
2022-08-17T13:54:34.935Z,99824.19
2022-08-17T13:57:28.415Z,99821.59
2022-08-17T14:00:30.941Z,99822.72
2022-08-17T14:03:20.101Z,99808.16
2022-08-17T14:06:07.800Z,99821.03
2022-08-17T14:08:57.127Z,99818.19
2022-08-17T14:11:47.796Z,99824.19
2022-08-17T14:14:36.616Z,99814.44
2022-08-17T14:17:24.356Z,99810.47
2022-08-17T14:20:12.965Z,99817.72
2022-08-17T14:22:59.811Z,99810.72
2022-08-17T14:25:47.946Z,99832.66
2022-08-17T14:28:36.392Z,99826.78
2022-08-17T14:31:22.987Z,99827.25
2022-08-17T14:34:10.663Z,99818.53
2022-08-17T14:36:58.977Z,99817.09
2022-08-17T14:39:54.886Z,99829.84
2022-08-17T14:42:51.120Z,99826.09
2022-08-17T14:45:37.842Z,99825.59
2022-08-17T14:48:25.877Z,99829.59
2022-08-17T14:51:18.806Z,99829.03
2022-08-17T14:54:06.798Z,99836.03
2022-08-17T14:57:15.567Z,99808.53
2022-08-17T15:00:04.799Z,99825.13
2022-08-17T15:02:54.723Z,99812.34
2022-08-17T15:05:41.617Z,99824.56
2022-08-17T15:08:28.811Z,99820.25
2022-08-17T15:11:15.882Z,99821.25
2022-08-17T15:14:03.824Z,99816.66
2022-08-17T15:16:57.053Z,99830.66
2022-08-17T15:20:06.075Z,99826.47
2022-08-17T15:23:01.523Z,99821.59
2022-08-17T15:25:51.117Z,99820.91
2022-08-17T15:28:43.051Z,99824.41
2022-08-17T15:31:47.694Z,99831.63
2022-08-17T15:34:40.532Z,99828.97
2022-08-17T15:37:35.001Z,99828.97
2022-08-17T15:40:27.594Z,99828.16
2022-08-17T15:43:51.508Z,99823.56
2022-08-17T15:47:06.299Z,99821.50
2022-08-17T15:50:09.692Z,99825.72
2022-08-17T15:53:01.264Z,99822.56
2022-08-17T15:55:52.338Z,99802.09
2022-08-17T15:58:48.760Z,99794.63
2022-08-17T16:03:01.178Z,99828.84
2022-08-17T16:04:57.372Z,99801.09
2022-08-17T16:07:50.756Z,99818.13
2022-08-17T16:10:44.695Z,99816.22
2022-08-17T16:13:36.552Z,99814.97
2022-08-17T16:16:27.457Z,99811.91
2022-08-17T16:19:18.403Z,99826.03
2022-08-17T16:22:09.990Z,99826.19
2022-08-17T16:25:08.490Z,99821.44
2022-08-17T16:28:01.264Z,99820.28
2022-08-17T16:30:47.682Z,99798.84
2022-08-17T16:33:37.310Z,99832.06
2022-08-17T16:36:55.110Z,99827.31
2022-08-17T16:39:57.638Z,99834.22
2022-08-17T16:42:49.564Z,99837.13
2022-08-17T16:45:43.172Z,99829.91
2022-08-17T16:48:30.452Z,99799.53
2022-08-17T16:51:24.583Z,99829.38
2022-08-17T16:54:15.928Z,99833.53
2022-08-17T16:57:05.656Z,99840.06
2022-08-17T16:59:53.634Z,99835.00
2022-08-17T17:02:48.069Z,99812.16
2022-08-17T17:05:46.170Z,99844.72
2022-08-17T17:09:05.669Z,99846.72
2022-08-17T17:12:03.870Z,99841.88
2022-08-17T17:14:59.294Z,99843.56
2022-08-17T17:17:49.826Z,99842.44
2022-08-17T17:21:13.927Z,99842.50
2022-08-17T17:24:07.481Z,99841.50
2022-08-17T17:27:13.409Z,99854.50
2022-08-17T17:30:41.662Z,99858.31
2022-08-17T17:33:49.253Z,99855.22
2022-08-17T17:36:51.578Z,99853.09
2022-08-17T17:39:50.273Z,99858.47
2022-08-17T17:42:40.458Z,99857.00
2022-08-17T17:45:40.590Z,99857.66
2022-08-17T17:48:30.239Z,99851.88
2022-08-17T17:51:35.169Z,99864.00
2022-08-17T17:55:04.439Z,99869.50
2022-08-17T17:58:22.064Z,99865.84
2022-08-17T18:01:26.120Z,99870.44
2022-08-17T18:04:21.454Z,99872.19
2022-08-17T18:07:27.256Z,99872.81
2022-08-17T18:10:30.317Z,99865.88
2022-08-17T18:13:36.409Z,99868.84
2022-08-17T18:16:23.210Z,99856.69
2022-08-17T18:19:21.229Z,99861.69
2022-08-17T18:22:23.306Z,99860.81
2022-08-17T18:25:43.991Z,99867.47
2022-08-17T18:28:40.315Z,99869.31
2022-08-17T18:31:27.071Z,99877.09
2022-08-17T18:37:40.257Z,99871.50
2022-08-17T18:40:36.192Z,99872.00
2022-08-17T18:43:44.210Z,99880.59
2022-08-17T18:46:43.844Z,99855.28
2022-08-17T18:49:30.365Z,99865.66
2022-08-17T18:52:33.751Z,99856.72
2022-08-17T18:55:30.312Z,99871.94
2022-08-17T18:58:20.501Z,99880.03
2022-08-17T19:01:06.528Z,99884.16
2022-08-17T19:03:52.801Z,99873.47
2022-08-17T19:06:39.795Z,99874.41
2022-08-17T19:09:47.517Z,99877.63
2022-08-17T19:12:47.614Z,99879.00
2022-08-17T19:15:38.691Z,99868.28
2022-08-17T19:18:30.559Z,99865.25
2022-08-17T19:21:26.317Z,99858.25
2022-08-17T19:24:20.288Z,99865.94
2022-08-17T19:27:34.927Z,99885.66
2022-08-17T19:30:53.093Z,99887.38
2022-08-17T19:33:52.281Z,99882.72
2022-08-17T19:36:57.562Z,99878.88
2022-08-17T19:40:08.733Z,99894.19
2022-08-17T19:43:13.723Z,99903.16
2022-08-17T19:46:08.745Z,99903.69
2022-08-17T19:49:22.414Z,99910.50
2022-08-17T19:52:37.725Z,99907.31
2022-08-17T19:55:44.180Z,99904.22
2022-08-17T19:58:52.058Z,99880.38
2022-08-17T20:01:45.484Z,99914.31
2022-08-17T20:04:42.400Z,99916.38
2022-08-17T20:07:46.556Z,99912.00
2022-08-17T20:10:47.369Z,99917.31
2022-08-17T20:14:00.254Z,99913.38
2022-08-17T20:16:47.487Z,99914.22
2022-08-17T20:19:52.363Z,99895.63
2022-08-17T20:22:59.589Z,99923.19
2022-08-17T20:26:10.319Z,99887.75
2022-08-17T20:29:06.134Z,99923.28
2022-08-17T20:31:55.406Z,99924.50
2022-08-17T20:34:45.529Z,99924.94
2022-08-17T20:37:34.324Z,99899.06
2022-08-17T20:40:26.103Z,99918.22
2022-08-17T20:43:34.258Z,99931.81
2022-08-17T20:46:41.858Z,99930.28
2022-08-17T20:49:57.818Z,99928.31
2022-08-17T20:52:54.191Z,99928.00
2022-08-17T20:55:52.294Z,99925.59
2022-08-17T20:58:46.600Z,99926.88
2022-08-17T21:01:39.886Z,99924.50
2022-08-17T21:05:07.317Z,99922.56
2022-08-17T21:08:00.567Z,99928.59
2022-08-17T21:10:47.472Z,99920.63
2022-08-17T21:13:36.651Z,99923.44
2022-08-17T21:16:27.110Z,99892.00
2022-08-17T21:19:19.442Z,99907.44
2022-08-17T21:22:21.272Z,99907.53
2022-08-17T21:25:26.391Z,99908.78
2022-08-17T21:28:33.979Z,99910.38
2022-08-17T21:31:40.273Z,99896.91
2022-08-17T21:34:29.118Z,99922.81
2022-08-17T21:37:33.374Z,99919.63
2022-08-17T21:40:27.456Z,99934.41
2022-08-17T21:43:27.109Z,99904.06
2022-08-17T21:46:29.505Z,99923.44
2022-08-17T21:49:19.383Z,99905.97
2022-08-17T21:52:07.762Z,99926.78
2022-08-17T21:54:57.744Z,99921.22
2022-08-17T21:57:53.176Z,99920.88
2022-08-17T22:01:22.811Z,99920.06
2022-08-17T22:04:15.251Z,99915.66
2022-08-17T22:07:09.950Z,99906.50
2022-08-17T22:09:56.213Z,99905.00
2022-08-17T22:13:05.265Z,99911.31
2022-08-17T22:16:29.067Z,99907.31
2022-08-17T22:19:15.930Z,99899.84
2022-08-17T22:22:05.064Z,99909.78
2022-08-17T22:24:56.845Z,99898.59
2022-08-17T22:28:11.016Z,99897.81
2022-08-17T22:31:02.416Z,99885.13
2022-08-17T22:34:09.968Z,99906.66
2022-08-17T22:37:27.511Z,99910.63
2022-08-17T22:40:26.157Z,99907.28
2022-08-17T22:43:13.074Z,99903.28
2022-08-17T22:46:00.265Z,99915.72
2022-08-17T22:48:50.271Z,99911.41
2022-08-17T22:51:43.061Z,99915.03
2022-08-17T22:54:48.119Z,99902.28
2022-08-17T22:58:07.944Z,99905.91
2022-08-17T23:00:54.060Z,99913.47
2022-08-17T23:03:54.170Z,99909.44
2022-08-17T23:06:44.027Z,99913.88
2022-08-17T23:09:30.939Z,99914.75
2022-08-17T23:12:23.920Z,99923.94
2022-08-17T23:15:14.846Z,99907.19
2022-08-17T23:18:04.928Z,99928.75
2022-08-17T23:20:51.922Z,99929.94
2022-08-17T23:23:39.314Z,99912.84
2022-08-17T23:26:27.868Z,99936.38
2022-08-17T23:29:14.878Z,99941.19
2022-08-17T23:32:04.899Z,99941.19
2022-08-17T23:34:51.143Z,99944.78
2022-08-17T23:37:38.219Z,99943.22
2022-08-17T23:40:24.881Z,99941.59
2022-08-17T23:43:23.881Z,99943.59
2022-08-17T23:46:11.886Z,99944.41
2022-08-17T23:48:59.790Z,99938.81
2022-08-17T23:51:46.835Z,99942.41
2022-08-17T23:54:38.955Z,99939.22
2022-08-17T23:57:33.842Z,99945.19
